sensor_id;sensor_type;location;lat;lon;timestamp;temperature;humidity
28947;DHT22;16052;50.930;5.326;2022-12-08T00:01:47;5.50;99.90
28947;DHT22;16052;50.930;5.326;2022-12-08T00:04:13;5.50;99.90
28947;DHT22;16052;50.930;5.326;2022-12-08T00:06:41;5.60;99.90
28947;DHT22;16052;50.930;5.326;2022-12-08T00:09:40;5.70;99.90
28947;DHT22;16052;50.930;5.326;2022-12-08T00:12:11;5.60;99.90
28947;DHT22;16052;50.930;5.326;2022-12-08T00:14:47;5.70;99.90
28947;DHT22;16052;50.930;5.326;2022-12-08T00:17:15;5.60;99.90
28947;DHT22;16052;50.930;5.326;2022-12-08T00:19:42;5.60;99.90
28947;DHT22;16052;50.930;5.326;2022-12-08T00:22:09;5.70;99.90
28947;DHT22;16052;50.930;5.326;2022-12-08T00:24:37;5.60;99.90
28947;DHT22;16052;50.930;5.326;2022-12-08T00:27:04;5.60;99.90
28947;DHT22;16052;50.930;5.326;2022-12-08T00:29:30;5.70;99.90
28947;DHT22;16052;50.930;5.326;2022-12-08T00:31:56;5.60;99.90
28947;DHT22;16052;50.930;5.326;2022-12-08T00:34:21;5.60;99.90
28947;DHT22;16052;50.930;5.326;2022-12-08T00:36:47;5.60;99.90
28947;DHT22;16052;50.930;5.326;2022-12-08T00:39:14;5.60;99.90
28947;DHT22;16052;50.930;5.326;2022-12-08T00:41:40;5.60;99.90
28947;DHT22;16052;50.930;5.326;2022-12-08T00:44:24;5.60;99.90
28947;DHT22;16052;50.930;5.326;2022-12-08T00:46:50;5.50;99.90
28947;DHT22;16052;50.930;5.326;2022-12-08T00:49:16;5.40;99.90
28947;DHT22;16052;50.930;5.326;2022-12-08T00:51:43;5.40;99.90
28947;DHT22;16052;50.930;5.326;2022-12-08T00:54:09;5.40;99.90
28947;DHT22;16052;50.930;5.326;2022-12-08T00:56:35;5.30;99.90
28947;DHT22;16052;50.930;5.326;2022-12-08T00:59:03;5.40;99.90
28947;DHT22;16052;50.930;5.326;2022-12-08T01:01:30;5.40;99.90
28947;DHT22;16052;50.930;5.326;2022-12-08T01:03:56;5.40;99.90
28947;DHT22;16052;50.930;5.326;2022-12-08T01:06:21;5.30;99.90
28947;DHT22;16052;50.930;5.326;2022-12-08T01:08:47;5.30;99.90
28947;DHT22;16052;50.930;5.326;2022-12-08T01:11:15;5.30;99.90
28947;DHT22;16052;50.930;5.326;2022-12-08T01:13:42;5.20;99.90
28947;DHT22;16052;50.930;5.326;2022-12-08T01:16:08;5.20;99.90
28947;DHT22;16052;50.930;5.326;2022-12-08T01:18:33;5.10;99.90
28947;DHT22;16052;50.930;5.326;2022-12-08T01:21:04;5.10;99.90
28947;DHT22;16052;50.930;5.326;2022-12-08T01:23:31;5.10;99.90
28947;DHT22;16052;50.930;5.326;2022-12-08T01:26:01;5.20;99.90
28947;DHT22;16052;50.930;5.326;2022-12-08T01:28:28;5.20;99.90
28947;DHT22;16052;50.930;5.326;2022-12-08T01:30:54;5.20;99.90
28947;DHT22;16052;50.930;5.326;2022-12-08T01:33:19;5.20;99.90
28947;DHT22;16052;50.930;5.326;2022-12-08T01:35:45;5.10;99.90
28947;DHT22;16052;50.930;5.326;2022-12-08T01:38:10;5.10;99.90
28947;DHT22;16052;50.930;5.326;2022-12-08T01:40:36;5.10;99.90
28947;DHT22;16052;50.930;5.326;2022-12-08T01:43:02;5.10;99.90
28947;DHT22;16052;50.930;5.326;2022-12-08T01:45:29;5.10;99.90
28947;DHT22;16052;50.930;5.326;2022-12-08T01:48:05;5.10;99.90
28947;DHT22;16052;50.930;5.326;2022-12-08T01:50:32;5.20;99.90
28947;DHT22;16052;50.930;5.326;2022-12-08T01:53:25;5.30;99.90
28947;DHT22;16052;50.930;5.326;2022-12-08T01:55:52;5.30;99.90
28947;DHT22;16052;50.930;5.326;2022-12-08T01:58:26;5.30;99.90
28947;DHT22;16052;50.930;5.326;2022-12-08T02:00:55;5.30;99.90
28947;DHT22;16052;50.930;5.326;2022-12-08T02:03:38;5.20;99.90
28947;DHT22;16052;50.930;5.326;2022-12-08T02:06:05;5.20;99.90
28947;DHT22;16052;50.930;5.326;2022-12-08T02:08:31;5.10;99.90
28947;DHT22;16052;50.930;5.326;2022-12-08T02:10:58;5.10;99.90
28947;DHT22;16052;50.930;5.326;2022-12-08T02:13:23;5.10;99.90
28947;DHT22;16052;50.930;5.326;2022-12-08T02:16:02;5.00;99.90
28947;DHT22;16052;50.930;5.326;2022-12-08T02:21:26;5.10;99.90
28947;DHT22;16052;50.930;5.326;2022-12-08T02:30:02;5.00;99.90
28947;DHT22;16052;50.930;5.326;2022-12-08T02:35:39;4.90;99.90
28947;DHT22;16052;50.930;5.326;2022-12-08T02:43:38;5.00;99.90
28947;DHT22;16052;50.930;5.326;2022-12-08T02:46:38;5.00;99.90
28947;DHT22;16052;50.930;5.326;2022-12-08T02:49:05;5.00;99.90
28947;DHT22;16052;50.930;5.326;2022-12-08T02:51:31;5.00;99.90
28947;DHT22;16052;50.930;5.326;2022-12-08T02:53:57;5.10;99.90
28947;DHT22;16052;50.930;5.326;2022-12-08T02:59:16;4.90;99.90
28947;DHT22;16052;50.930;5.326;2022-12-08T03:04:50;5.00;99.90
28947;DHT22;16052;50.930;5.326;2022-12-08T03:07:33;4.90;99.90
28947;DHT22;16052;50.930;5.326;2022-12-08T03:10:50;4.90;99.90
28947;DHT22;16052;50.930;5.326;2022-12-08T03:12:55;4.90;99.90
28947;DHT22;16052;50.930;5.326;2022-12-08T03:15:23;4.80;99.90
28947;DHT22;16052;50.930;5.326;2022-12-08T03:17:52;4.70;99.90
28947;DHT22;16052;50.930;5.326;2022-12-08T03:20:22;4.70;99.90
28947;DHT22;16052;50.930;5.326;2022-12-08T03:22:50;4.70;99.90
28947;DHT22;16052;50.930;5.326;2022-12-08T03:25:20;4.70;99.90
28947;DHT22;16052;50.930;5.326;2022-12-08T03:27:47;4.80;99.90
28947;DHT22;16052;50.930;5.326;2022-12-08T03:30:13;4.90;99.90
28947;DHT22;16052;50.930;5.326;2022-12-08T03:35:24;4.80;99.90
28947;DHT22;16052;50.930;5.326;2022-12-08T03:37:51;4.80;99.90
28947;DHT22;16052;50.930;5.326;2022-12-08T03:40:25;4.80;99.90
28947;DHT22;16052;50.930;5.326;2022-12-08T03:42:51;4.70;99.90
28947;DHT22;16052;50.930;5.326;2022-12-08T03:45:17;4.70;99.90
28947;DHT22;16052;50.930;5.326;2022-12-08T03:47:42;4.70;99.90
28947;DHT22;16052;50.930;5.326;2022-12-08T03:50:08;4.70;99.90
28947;DHT22;16052;50.930;5.326;2022-12-08T03:52:34;4.70;99.90
28947;DHT22;16052;50.930;5.326;2022-12-08T03:54:59;4.60;99.90
28947;DHT22;16052;50.930;5.326;2022-12-08T03:57:25;4.70;99.90
28947;DHT22;16052;50.930;5.326;2022-12-08T03:59:51;4.60;99.90
28947;DHT22;16052;50.930;5.326;2022-12-08T04:02:16;4.70;99.90
28947;DHT22;16052;50.930;5.326;2022-12-08T04:04:42;4.70;99.90
28947;DHT22;16052;50.930;5.326;2022-12-08T04:07:08;4.70;99.90
28947;DHT22;16052;50.930;5.326;2022-12-08T04:09:33;4.80;99.90
28947;DHT22;16052;50.930;5.326;2022-12-08T04:11:59;4.80;99.90
28947;DHT22;16052;50.930;5.326;2022-12-08T04:14:24;4.80;99.90
28947;DHT22;16052;50.930;5.326;2022-12-08T04:16:50;4.70;99.90
28947;DHT22;16052;50.930;5.326;2022-12-08T04:19:16;4.70;99.90
28947;DHT22;16052;50.930;5.326;2022-12-08T04:21:41;4.70;99.90
28947;DHT22;16052;50.930;5.326;2022-12-08T04:24:08;4.60;99.90
28947;DHT22;16052;50.930;5.326;2022-12-08T04:26:33;4.60;99.90
28947;DHT22;16052;50.930;5.326;2022-12-08T04:28:59;4.60;99.90
28947;DHT22;16052;50.930;5.326;2022-12-08T04:31:24;4.60;99.90
28947;DHT22;16052;50.930;5.326;2022-12-08T04:33:50;4.70;99.90
28947;DHT22;16052;50.930;5.326;2022-12-08T04:36:17;4.60;99.90
28947;DHT22;16052;50.930;5.326;2022-12-08T04:38:43;4.60;99.90
28947;DHT22;16052;50.930;5.326;2022-12-08T04:41:08;4.50;99.90
28947;DHT22;16052;50.930;5.326;2022-12-08T04:43:34;4.50;99.90
28947;DHT22;16052;50.930;5.326;2022-12-08T04:46:00;4.50;99.90
28947;DHT22;16052;50.930;5.326;2022-12-08T04:48:26;4.60;99.90
28947;DHT22;16052;50.930;5.326;2022-12-08T04:50:51;4.60;99.90
28947;DHT22;16052;50.930;5.326;2022-12-08T04:53:17;4.50;99.90
28947;DHT22;16052;50.930;5.326;2022-12-08T04:55:44;4.50;99.90
28947;DHT22;16052;50.930;5.326;2022-12-08T04:58:15;4.50;99.90
28947;DHT22;16052;50.930;5.326;2022-12-08T05:00:41;4.50;99.90
28947;DHT22;16052;50.930;5.326;2022-12-08T05:03:07;4.60;99.90
28947;DHT22;16052;50.930;5.326;2022-12-08T05:05:33;4.50;99.90
28947;DHT22;16052;50.930;5.326;2022-12-08T05:07:59;4.50;99.90
28947;DHT22;16052;50.930;5.326;2022-12-08T05:10:24;4.50;99.90
28947;DHT22;16052;50.930;5.326;2022-12-08T05:12:50;4.50;99.90
28947;DHT22;16052;50.930;5.326;2022-12-08T05:15:16;4.50;99.90
28947;DHT22;16052;50.930;5.326;2022-12-08T05:17:41;4.50;99.90
28947;DHT22;16052;50.930;5.326;2022-12-08T05:20:08;4.50;99.90
28947;DHT22;16052;50.930;5.326;2022-12-08T05:22:33;4.40;99.90
28947;DHT22;16052;50.930;5.326;2022-12-08T05:24:59;4.50;99.90
28947;DHT22;16052;50.930;5.326;2022-12-08T05:27:25;4.40;99.90
28947;DHT22;16052;50.930;5.326;2022-12-08T05:29:50;4.40;99.90
28947;DHT22;16052;50.930;5.326;2022-12-08T05:32:16;4.40;99.90
28947;DHT22;16052;50.930;5.326;2022-12-08T05:34:42;4.50;99.90
28947;DHT22;16052;50.930;5.326;2022-12-08T05:37:07;4.50;99.90
28947;DHT22;16052;50.930;5.326;2022-12-08T05:39:33;4.40;99.90
28947;DHT22;16052;50.930;5.326;2022-12-08T05:41:58;4.30;99.90
28947;DHT22;16052;50.930;5.326;2022-12-08T05:44:25;4.40;99.90
28947;DHT22;16052;50.930;5.326;2022-12-08T05:46:50;4.40;99.90
28947;DHT22;16052;50.930;5.326;2022-12-08T05:49:16;4.40;99.90
28947;DHT22;16052;50.930;5.326;2022-12-08T05:51:42;4.40;99.90
28947;DHT22;16052;50.930;5.326;2022-12-08T05:54:07;4.40;99.90
28947;DHT22;16052;50.930;5.326;2022-12-08T05:56:33;4.40;99.90
28947;DHT22;16052;50.930;5.326;2022-12-08T05:58:59;4.40;99.90
28947;DHT22;16052;50.930;5.326;2022-12-08T06:01:27;4.50;99.90
28947;DHT22;16052;50.930;5.326;2022-12-08T06:03:54;4.50;99.90
28947;DHT22;16052;50.930;5.326;2022-12-08T06:06:20;4.50;99.90
28947;DHT22;16052;50.930;5.326;2022-12-08T06:08:46;4.40;99.90
28947;DHT22;16052;50.930;5.326;2022-12-08T06:11:26;4.40;99.90
28947;DHT22;16052;50.930;5.326;2022-12-08T06:13:53;4.40;99.90
28947;DHT22;16052;50.930;5.326;2022-12-08T06:16:20;4.40;99.90
28947;DHT22;16052;50.930;5.326;2022-12-08T06:18:46;4.30;99.90
28947;DHT22;16052;50.930;5.326;2022-12-08T06:21:13;4.30;99.90
28947;DHT22;16052;50.930;5.326;2022-12-08T06:23:39;4.30;99.90
28947;DHT22;16052;50.930;5.326;2022-12-08T06:26:11;4.30;99.90
28947;DHT22;16052;50.930;5.326;2022-12-08T06:28:40;4.40;99.90
28947;DHT22;16052;50.930;5.326;2022-12-08T06:31:14;4.30;99.90
28947;DHT22;16052;50.930;5.326;2022-12-08T06:33:40;4.40;99.90
28947;DHT22;16052;50.930;5.326;2022-12-08T06:36:06;4.40;99.90
28947;DHT22;16052;50.930;5.326;2022-12-08T06:38:32;4.40;99.90
28947;DHT22;16052;50.930;5.326;2022-12-08T06:40:58;4.50;99.90
28947;DHT22;16052;50.930;5.326;2022-12-08T06:43:24;4.50;99.90
28947;DHT22;16052;50.930;5.326;2022-12-08T06:45:51;4.60;99.90
28947;DHT22;16052;50.930;5.326;2022-12-08T06:48:18;4.60;99.90
28947;DHT22;16052;50.930;5.326;2022-12-08T06:50:44;4.50;99.90
28947;DHT22;16052;50.930;5.326;2022-12-08T06:53:13;4.50;99.90
28947;DHT22;16052;50.930;5.326;2022-12-08T06:55:46;4.50;99.90
28947;DHT22;16052;50.930;5.326;2022-12-08T06:58:12;4.50;99.90
28947;DHT22;16052;50.930;5.326;2022-12-08T07:00:40;4.50;99.90
28947;DHT22;16052;50.930;5.326;2022-12-08T07:03:07;4.50;99.90
28947;DHT22;16052;50.930;5.326;2022-12-08T07:05:34;4.50;99.90
28947;DHT22;16052;50.930;5.326;2022-12-08T07:08:00;4.50;99.90
28947;DHT22;16052;50.930;5.326;2022-12-08T07:10:25;4.40;99.90
28947;DHT22;16052;50.930;5.326;2022-12-08T07:12:51;4.50;99.90
28947;DHT22;16052;50.930;5.326;2022-12-08T07:15:17;4.30;99.90
28947;DHT22;16052;50.930;5.326;2022-12-08T07:17:43;4.30;99.90
28947;DHT22;16052;50.930;5.326;2022-12-08T07:20:08;4.30;99.90
28947;DHT22;16052;50.930;5.326;2022-12-08T07:22:34;4.20;99.90
28947;DHT22;16052;50.930;5.326;2022-12-08T07:24:59;4.20;99.90
28947;DHT22;16052;50.930;5.326;2022-12-08T07:27:25;4.20;99.90
28947;DHT22;16052;50.930;5.326;2022-12-08T07:29:51;4.20;99.90
28947;DHT22;16052;50.930;5.326;2022-12-08T07:32:16;4.20;99.90
28947;DHT22;16052;50.930;5.326;2022-12-08T07:34:42;4.20;99.90
28947;DHT22;16052;50.930;5.326;2022-12-08T07:37:08;4.20;99.90
28947;DHT22;16052;50.930;5.326;2022-12-08T07:39:33;4.20;99.90
28947;DHT22;16052;50.930;5.326;2022-12-08T07:41:59;4.30;99.90
28947;DHT22;16052;50.930;5.326;2022-12-08T07:44:24;4.30;99.90
28947;DHT22;16052;50.930;5.326;2022-12-08T07:46:50;4.40;99.90
28947;DHT22;16052;50.930;5.326;2022-12-08T07:49:16;4.40;99.90
28947;DHT22;16052;50.930;5.326;2022-12-08T07:51:41;4.40;99.90
28947;DHT22;16052;50.930;5.326;2022-12-08T07:54:10;4.30;99.90
28947;DHT22;16052;50.930;5.326;2022-12-08T07:56:37;4.30;99.90
28947;DHT22;16052;50.930;5.326;2022-12-08T07:59:02;4.30;99.90
28947;DHT22;16052;50.930;5.326;2022-12-08T08:01:32;4.30;99.90
28947;DHT22;16052;50.930;5.326;2022-12-08T08:03:59;4.30;99.90
28947;DHT22;16052;50.930;5.326;2022-12-08T08:06:30;4.30;99.90
28947;DHT22;16052;50.930;5.326;2022-12-08T08:08:56;4.30;99.90
28947;DHT22;16052;50.930;5.326;2022-12-08T08:11:22;4.30;99.90
28947;DHT22;16052;50.930;5.326;2022-12-08T08:13:48;4.40;99.90
28947;DHT22;16052;50.930;5.326;2022-12-08T08:16:14;4.40;99.90
28947;DHT22;16052;50.930;5.326;2022-12-08T08:18:40;4.50;99.90
28947;DHT22;16052;50.930;5.326;2022-12-08T08:21:05;4.50;99.90
28947;DHT22;16052;50.930;5.326;2022-12-08T08:23:31;4.30;99.90
28947;DHT22;16052;50.930;5.326;2022-12-08T08:25:58;4.30;99.90
28947;DHT22;16052;50.930;5.326;2022-12-08T08:28:25;4.30;99.90
28947;DHT22;16052;50.930;5.326;2022-12-08T08:30:50;4.30;99.90
28947;DHT22;16052;50.930;5.326;2022-12-08T08:33:16;4.40;99.90
28947;DHT22;16052;50.930;5.326;2022-12-08T08:35:41;4.40;99.90
28947;DHT22;16052;50.930;5.326;2022-12-08T08:38:07;4.40;99.90
28947;DHT22;16052;50.930;5.326;2022-12-08T08:40:33;4.50;99.90
28947;DHT22;16052;50.930;5.326;2022-12-08T08:43:03;4.40;99.90
28947;DHT22;16052;50.930;5.326;2022-12-08T08:45:29;4.40;99.90
28947;DHT22;16052;50.930;5.326;2022-12-08T08:47:55;4.40;99.90
28947;DHT22;16052;50.930;5.326;2022-12-08T08:50:21;4.30;99.90
28947;DHT22;16052;50.930;5.326;2022-12-08T08:52:46;4.30;99.90
28947;DHT22;16052;50.930;5.326;2022-12-08T08:55:12;4.30;99.90
28947;DHT22;16052;50.930;5.326;2022-12-08T08:57:38;4.30;99.90
28947;DHT22;16052;50.930;5.326;2022-12-08T09:00:05;4.40;99.90
28947;DHT22;16052;50.930;5.326;2022-12-08T09:02:31;4.40;99.90
28947;DHT22;16052;50.930;5.326;2022-12-08T09:04:56;4.50;99.90
28947;DHT22;16052;50.930;5.326;2022-12-08T09:07:22;4.50;99.90
28947;DHT22;16052;50.930;5.326;2022-12-08T09:09:48;4.50;99.90
28947;DHT22;16052;50.930;5.326;2022-12-08T09:12:13;4.60;99.90
28947;DHT22;16052;50.930;5.326;2022-12-08T09:14:39;4.60;99.90
28947;DHT22;16052;50.930;5.326;2022-12-08T09:17:06;4.70;99.90
28947;DHT22;16052;50.930;5.326;2022-12-08T09:19:32;4.70;99.90
28947;DHT22;16052;50.930;5.326;2022-12-08T09:21:57;4.80;99.90
28947;DHT22;16052;50.930;5.326;2022-12-08T09:24:23;4.80;99.90
28947;DHT22;16052;50.930;5.326;2022-12-08T09:26:49;4.70;99.90
28947;DHT22;16052;50.930;5.326;2022-12-08T09:29:14;4.70;99.90
28947;DHT22;16052;50.930;5.326;2022-12-08T09:31:42;4.60;99.90
28947;DHT22;16052;50.930;5.326;2022-12-08T09:34:12;4.50;99.90
28947;DHT22;16052;50.930;5.326;2022-12-08T09:36:38;4.50;99.90
28947;DHT22;16052;50.930;5.326;2022-12-08T09:39:04;4.60;99.90
28947;DHT22;16052;50.930;5.326;2022-12-08T09:46:41;4.70;99.90
28947;DHT22;16052;50.930;5.326;2022-12-08T09:49:16;4.80;99.90
28947;DHT22;16052;50.930;5.326;2022-12-08T09:51:44;4.90;99.90
28947;DHT22;16052;50.930;5.326;2022-12-08T09:54:26;4.80;99.90
28947;DHT22;16052;50.930;5.326;2022-12-08T09:56:54;4.80;99.90
28947;DHT22;16052;50.930;5.326;2022-12-08T09:59:22;4.70;99.90
28947;DHT22;16052;50.930;5.326;2022-12-08T10:01:49;4.80;99.90
28947;DHT22;16052;50.930;5.326;2022-12-08T10:04:42;4.80;99.90
28947;DHT22;16052;50.930;5.326;2022-12-08T10:07:46;4.80;99.90
28947;DHT22;16052;50.930;5.326;2022-12-08T10:10:32;5.00;99.90
28947;DHT22;16052;50.930;5.326;2022-12-08T10:13:20;4.80;99.90
28947;DHT22;16052;50.930;5.326;2022-12-08T10:19:01;4.70;99.90
28947;DHT22;16052;50.930;5.326;2022-12-08T10:21:34;4.60;99.90
28947;DHT22;16052;50.930;5.326;2022-12-08T10:24:14;4.70;99.90
28947;DHT22;16052;50.930;5.326;2022-12-08T10:26:41;4.70;99.90
28947;DHT22;16052;50.930;5.326;2022-12-08T10:29:11;4.60;99.90
28947;DHT22;16052;50.930;5.326;2022-12-08T10:31:37;4.80;99.90
28947;DHT22;16052;50.930;5.326;2022-12-08T10:34:22;4.70;99.90
28947;DHT22;16052;50.930;5.326;2022-12-08T10:39:30;4.70;99.90
28947;DHT22;16052;50.930;5.326;2022-12-08T10:42:20;4.70;99.90
28947;DHT22;16052;50.930;5.326;2022-12-08T10:44:53;4.70;99.90
28947;DHT22;16052;50.930;5.326;2022-12-08T10:47:22;4.80;99.90
28947;DHT22;16052;50.930;5.326;2022-12-08T10:55:39;4.70;99.90
28947;DHT22;16052;50.930;5.326;2022-12-08T10:58:29;4.70;99.90
28947;DHT22;16052;50.930;5.326;2022-12-08T11:01:00;4.70;99.90
28947;DHT22;16052;50.930;5.326;2022-12-08T11:03:43;4.80;99.90
28947;DHT22;16052;50.930;5.326;2022-12-08T11:08:50;4.80;99.90
28947;DHT22;16052;50.930;5.326;2022-12-08T11:11:18;4.80;99.90
28947;DHT22;16052;50.930;5.326;2022-12-08T11:13:43;4.90;99.90
28947;DHT22;16052;50.930;5.326;2022-12-08T11:16:13;4.80;99.90
28947;DHT22;16052;50.930;5.326;2022-12-08T11:18:43;4.90;99.90
28947;DHT22;16052;50.930;5.326;2022-12-08T11:23:40;4.80;99.90
28947;DHT22;16052;50.930;5.326;2022-12-08T11:26:29;4.70;99.90
28947;DHT22;16052;50.930;5.326;2022-12-08T11:28:56;4.80;99.90
28947;DHT22;16052;50.930;5.326;2022-12-08T11:31:34;4.90;99.90
28947;DHT22;16052;50.930;5.326;2022-12-08T11:34:03;4.80;99.90
28947;DHT22;16052;50.930;5.326;2022-12-08T11:36:32;4.90;99.90
28947;DHT22;16052;50.930;5.326;2022-12-08T11:39:02;4.90;99.90
28947;DHT22;16052;50.930;5.326;2022-12-08T11:41:33;4.90;99.90
28947;DHT22;16052;50.930;5.326;2022-12-08T11:46:43;5.10;99.90
28947;DHT22;16052;50.930;5.326;2022-12-08T11:49:12;5.10;99.90
28947;DHT22;16052;50.930;5.326;2022-12-08T11:51:50;5.10;99.90
28947;DHT22;16052;50.930;5.326;2022-12-08T11:54:26;5.10;99.90
28947;DHT22;16052;50.930;5.326;2022-12-08T11:56:59;5.20;99.90
28947;DHT22;16052;50.930;5.326;2022-12-08T11:59:32;5.30;99.90
28947;DHT22;16052;50.930;5.326;2022-12-08T12:02:00;5.30;99.90
28947;DHT22;16052;50.930;5.326;2022-12-08T12:04:45;5.40;99.90
28947;DHT22;16052;50.930;5.326;2022-12-08T12:10:21;5.60;99.90
28947;DHT22;16052;50.930;5.326;2022-12-08T12:18:26;6.20;99.90
28947;DHT22;16052;50.930;5.326;2022-12-08T12:21:05;6.30;99.90
28947;DHT22;16052;50.930;5.326;2022-12-08T12:26:19;6.20;99.90
28947;DHT22;16052;50.930;5.326;2022-12-08T12:29:02;6.20;99.90
28947;DHT22;16052;50.930;5.326;2022-12-08T12:31:34;6.10;99.90
28947;DHT22;16052;50.930;5.326;2022-12-08T12:37:11;5.90;99.90
28947;DHT22;16052;50.930;5.326;2022-12-08T12:39:59;5.80;99.90
28947;DHT22;16052;50.930;5.326;2022-12-08T12:43:04;5.80;99.90
28947;DHT22;16052;50.930;5.326;2022-12-08T12:45:35;5.70;99.90
28947;DHT22;16052;50.930;5.326;2022-12-08T12:56:01;5.90;99.90
28947;DHT22;16052;50.930;5.326;2022-12-08T13:03:48;5.70;99.90
28947;DHT22;16052;50.930;5.326;2022-12-08T13:06:31;5.70;99.90
28947;DHT22;16052;50.930;5.326;2022-12-08T13:08:58;5.80;99.90
28947;DHT22;16052;50.930;5.326;2022-12-08T13:11:25;5.90;99.90
28947;DHT22;16052;50.930;5.326;2022-12-08T13:13:59;5.80;99.90
28947;DHT22;16052;50.930;5.326;2022-12-08T13:16:27;5.80;99.90
28947;DHT22;16052;50.930;5.326;2022-12-08T13:18:57;6.00;99.90
28947;DHT22;16052;50.930;5.326;2022-12-08T13:21:37;6.00;99.90
28947;DHT22;16052;50.930;5.326;2022-12-08T13:26:49;6.00;99.90
28947;DHT22;16052;50.930;5.326;2022-12-08T13:29:22;6.00;99.90
28947;DHT22;16052;50.930;5.326;2022-12-08T13:31:57;5.90;99.90
28947;DHT22;16052;50.930;5.326;2022-12-08T13:39:41;5.70;99.90
28947;DHT22;16052;50.930;5.326;2022-12-08T13:42:20;5.80;99.90
28947;DHT22;16052;50.930;5.326;2022-12-08T13:47:30;5.80;99.90
28947;DHT22;16052;50.930;5.326;2022-12-08T13:52:44;5.80;99.90
28947;DHT22;16052;50.930;5.326;2022-12-08T13:55:27;5.80;99.90
28947;DHT22;16052;50.930;5.326;2022-12-08T13:57:55;5.70;99.90
28947;DHT22;16052;50.930;5.326;2022-12-08T14:00:22;5.70;99.90
28947;DHT22;16052;50.930;5.326;2022-12-08T14:02:50;5.70;99.90
28947;DHT22;16052;50.930;5.326;2022-12-08T14:05:19;5.70;99.90
28947;DHT22;16052;50.930;5.326;2022-12-08T14:07:46;5.60;99.90
28947;DHT22;16052;50.930;5.326;2022-12-08T14:12:51;5.70;99.90
28947;DHT22;16052;50.930;5.326;2022-12-08T14:15:19;5.80;99.90
28947;DHT22;16052;50.930;5.326;2022-12-08T14:17:56;5.80;99.90
28947;DHT22;16052;50.930;5.326;2022-12-08T14:22:51;5.80;99.90
28947;DHT22;16052;50.930;5.326;2022-12-08T14:25:17;5.80;99.90
28947;DHT22;16052;50.930;5.326;2022-12-08T14:27:44;5.70;99.90
28947;DHT22;16052;50.930;5.326;2022-12-08T14:32:41;5.70;99.90
28947;DHT22;16052;50.930;5.326;2022-12-08T14:37:42;5.70;99.90
28947;DHT22;16052;50.930;5.326;2022-12-08T14:42:46;5.80;99.90
28947;DHT22;16052;50.930;5.326;2022-12-08T14:45:14;5.80;99.90
28947;DHT22;16052;50.930;5.326;2022-12-08T14:47:41;5.80;99.90
28947;DHT22;16052;50.930;5.326;2022-12-08T14:53:18;5.80;99.90
28947;DHT22;16052;50.930;5.326;2022-12-08T14:55:45;5.80;99.90
28947;DHT22;16052;50.930;5.326;2022-12-08T14:58:21;5.70;99.90
28947;DHT22;16052;50.930;5.326;2022-12-08T15:00:56;5.70;99.90
28947;DHT22;16052;50.930;5.326;2022-12-08T15:03:24;5.80;99.90
28947;DHT22;16052;50.930;5.326;2022-12-08T15:05:54;5.80;99.90
28947;DHT22;16052;50.930;5.326;2022-12-08T15:08:20;5.60;99.90
28947;DHT22;16052;50.930;5.326;2022-12-08T15:13:49;5.70;99.90
28947;DHT22;16052;50.930;5.326;2022-12-08T15:16:36;5.60;99.90
28947;DHT22;16052;50.930;5.326;2022-12-08T15:19:21;5.60;99.90
28947;DHT22;16052;50.930;5.326;2022-12-08T15:21:51;5.60;99.90
28947;DHT22;16052;50.930;5.326;2022-12-08T15:24:18;5.60;99.90
28947;DHT22;16052;50.930;5.326;2022-12-08T15:26:50;5.70;99.90
28947;DHT22;16052;50.930;5.326;2022-12-08T15:29:34;5.70;99.90
28947;DHT22;16052;50.930;5.326;2022-12-08T15:32:00;5.70;99.90
28947;DHT22;16052;50.930;5.326;2022-12-08T15:34:26;5.80;99.90
28947;DHT22;16052;50.930;5.326;2022-12-08T15:36:53;5.80;99.90
28947;DHT22;16052;50.930;5.326;2022-12-08T15:39:36;5.70;99.90
28947;DHT22;16052;50.930;5.326;2022-12-08T15:42:05;5.60;99.90
28947;DHT22;16052;50.930;5.326;2022-12-08T15:44:34;5.40;99.90
28947;DHT22;16052;50.930;5.326;2022-12-08T15:47:00;5.30;99.90
28947;DHT22;16052;50.930;5.326;2022-12-08T15:49:26;5.20;99.90
28947;DHT22;16052;50.930;5.326;2022-12-08T15:51:52;5.10;99.90
28947;DHT22;16052;50.930;5.326;2022-12-08T15:54:19;5.00;99.90
28947;DHT22;16052;50.930;5.326;2022-12-08T15:56:55;4.80;99.90
28947;DHT22;16052;50.930;5.326;2022-12-08T15:59:23;4.80;99.90
28947;DHT22;16052;50.930;5.326;2022-12-08T16:01:50;4.80;99.90
28947;DHT22;16052;50.930;5.326;2022-12-08T16:04:19;4.90;99.90
28947;DHT22;16052;50.930;5.326;2022-12-08T16:06:50;4.80;99.90
28947;DHT22;16052;50.930;5.326;2022-12-08T16:09:18;4.90;99.90
28947;DHT22;16052;50.930;5.326;2022-12-08T16:11:46;5.00;99.90
28947;DHT22;16052;50.930;5.326;2022-12-08T16:14:31;5.00;99.90
28947;DHT22;16052;50.930;5.326;2022-12-08T16:16:57;4.80;99.90
28947;DHT22;16052;50.930;5.326;2022-12-08T16:19:22;4.80;99.90
28947;DHT22;16052;50.930;5.326;2022-12-08T16:21:48;4.80;99.90
28947;DHT22;16052;50.930;5.326;2022-12-08T16:24:14;4.80;99.90
28947;DHT22;16052;50.930;5.326;2022-12-08T16:26:39;4.80;99.90
28947;DHT22;16052;50.930;5.326;2022-12-08T16:29:06;4.90;99.90
28947;DHT22;16052;50.930;5.326;2022-12-08T16:31:32;4.90;99.90
28947;DHT22;16052;50.930;5.326;2022-12-08T16:33:57;4.90;99.90
28947;DHT22;16052;50.930;5.326;2022-12-08T16:36:23;4.80;99.90
28947;DHT22;16052;50.930;5.326;2022-12-08T16:38:49;4.80;99.90
28947;DHT22;16052;50.930;5.326;2022-12-08T16:41:16;4.80;99.90
28947;DHT22;16052;50.930;5.326;2022-12-08T16:44:03;4.70;99.90
28947;DHT22;16052;50.930;5.326;2022-12-08T16:46:30;4.60;99.90
28947;DHT22;16052;50.930;5.326;2022-12-08T16:48:55;4.60;99.90
28947;DHT22;16052;50.930;5.326;2022-12-08T16:51:23;4.70;99.90
28947;DHT22;16052;50.930;5.326;2022-12-08T16:53:49;4.80;99.90
28947;DHT22;16052;50.930;5.326;2022-12-08T16:56:17;5.00;99.90
28947;DHT22;16052;50.930;5.326;2022-12-08T16:58:43;5.00;99.90
28947;DHT22;16052;50.930;5.326;2022-12-08T17:01:10;5.10;99.90
28947;DHT22;16052;50.930;5.326;2022-12-08T17:03:36;5.10;99.90
28947;DHT22;16052;50.930;5.326;2022-12-08T17:08:35;5.20;99.90
28947;DHT22;16052;50.930;5.326;2022-12-08T17:11:01;5.30;99.90
28947;DHT22;16052;50.930;5.326;2022-12-08T17:13:34;5.20;99.90
28947;DHT22;16052;50.930;5.326;2022-12-08T17:16:01;5.10;99.90
28947;DHT22;16052;50.930;5.326;2022-12-08T17:18:27;5.10;99.90
28947;DHT22;16052;50.930;5.326;2022-12-08T17:20:53;5.20;99.90
28947;DHT22;16052;50.930;5.326;2022-12-08T17:23:19;5.20;99.90
28947;DHT22;16052;50.930;5.326;2022-12-08T17:25:55;5.20;99.90
28947;DHT22;16052;50.930;5.326;2022-12-08T17:28:20;5.30;99.90
28947;DHT22;16052;50.930;5.326;2022-12-08T17:30:46;5.20;99.90
28947;DHT22;16052;50.930;5.326;2022-12-08T17:33:12;5.10;99.90
28947;DHT22;16052;50.930;5.326;2022-12-08T17:35:37;5.20;99.90
28947;DHT22;16052;50.930;5.326;2022-12-08T17:38:03;5.00;99.90
28947;DHT22;16052;50.930;5.326;2022-12-08T17:40:28;4.90;99.90
28947;DHT22;16052;50.930;5.326;2022-12-08T17:42:54;4.90;99.90
28947;DHT22;16052;50.930;5.326;2022-12-08T17:45:19;4.90;99.90
28947;DHT22;16052;50.930;5.326;2022-12-08T17:47:45;4.90;99.90
28947;DHT22;16052;50.930;5.326;2022-12-08T17:50:10;4.80;99.90